Time;durP1;ratioP1;P1;durP2;ratioP2;P2;SDS_P1;SDS_P2;PMS_P1;PMS_P2;Temp;Humidity;BMP_temperature;BMP_pressure;BME280_temperature;BME280_humidity;BME280_pressure;Samples;Min_cycle;Max_cycle;Signal;HPM_P1;HPM_P2
2022/03/10 00:01:58;;;;;;;;;;;;;;;;;;5133729;27;19911;-72
2022/03/10 00:04:24;;;;;;;;;;;6.50;1.00;;;;;;5122721;27;20282;-70
2022/03/10 00:06:49;;;;;;;;;;;6.20;1.00;;;;;;5113371;28;19914;-70
2022/03/10 00:09:15;;;;;;;;;;;6.30;1.00;;;;;;5094597;28;20295;-70
2022/03/10 00:11:41;;;;;;;;;;;6.10;1.00;;;;;;5113310;28;19907;-70
2022/03/10 00:14:10;;;;;;;;;;;;;;;;;;5112661;28;19930;-70
2022/03/10 00:16:37;;;;;;;;;;;6.20;1.00;;;;;;5113174;28;19943;-70
2022/03/10 00:19:02;;;;;;;;;;;6.30;1.00;;;;;;5112294;28;20380;-71
2022/03/10 00:21:28;;;;;;;;;;;6.30;1.00;;;;;;5113180;28;19954;-70
2022/03/10 00:23:53;;;;;;;;;;;6.40;1.00;;;;;;5122972;27;20002;-70
2022/03/10 00:26:19;;;;;;;;;;;6.40;1.00;;;;;;5132946;27;19942;-70
2022/03/10 00:28:44;;;;;;;;;;;6.50;1.00;;;;;;5133410;27;19971;-72
2022/03/10 00:31:10;;;;;;;;;;;6.50;1.00;;;;;;5133286;27;20312;-70
2022/03/10 00:33:35;;;;;;;;;;;6.50;1.00;;;;;;5133689;27;19963;-70
2022/03/10 00:36:01;;;;;;;;;;;;;;;;;;5133021;27;19908;-71
2022/03/10 00:38:27;;;;;;;;;;;6.50;1.00;;;;;;5133494;27;19907;-70
2022/03/10 00:40:52;;;;;;;;;;;6.50;1.00;;;;;;5133721;27;19912;-69
2022/03/10 00:43:18;;;;;;;;;;;;;;;;;;5132681;27;20521;-70
2022/03/10 00:45:43;;;;;;;;;;;6.40;1.00;;;;;;5129790;27;19908;-70
2022/03/10 00:48:09;;;;;;;;;;;6.40;1.00;;;;;;5111938;28;19912;-70
2022/03/10 00:50:34;;;;;;;;;;;6.40;1.00;;;;;;5112846;28;19908;-70
2022/03/10 00:53:00;;;;;;;;;;;;;;;;;;5112546;28;19908;-71
2022/03/10 00:55:26;;;;;;;;;;;6.40;1.00;;;;;;5094181;28;19946;-70
2022/03/10 00:57:51;;;;;;;;;;;6.50;1.00;;;;;;5114634;28;19908;-70
2022/03/10 01:00:17;;;;;;;;;;;;;;;;;;5132730;28;20279;-70
2022/03/10 01:02:43;;;;;;;;;;;6.50;1.00;;;;;;5133245;28;19916;-70
2022/03/10 01:05:09;;;;;;;;;;;6.50;1.00;;;;;;5133113;27;20325;-69
2022/03/10 01:07:34;;;;;;;;;;;6.50;1.00;;;;;;5137482;27;19908;-70
2022/03/10 01:10:00;;;;;;;;;;;;;;;;;;5137251;27;19918;-71
2022/03/10 01:12:26;;;;;;;;;;;6.50;1.00;;;;;;5136961;27;19914;-70
2022/03/10 01:14:52;;;;;;;;;;;6.60;1.00;;;;;;5137383;27;20378;-70
2022/03/10 01:17:18;;;;;;;;;;;6.70;1.00;;;;;;5117959;27;19907;-71
2022/03/10 01:19:44;;;;;;;;;;;6.70;1.00;;;;;;5137335;27;19914;-70
2022/03/10 01:22:09;;;;;;;;;;;6.70;1.00;;;;;;5136617;27;20278;-70
2022/03/10 01:24:35;;;;;;;;;;;6.70;1.00;;;;;;5137193;27;20382;-70
2022/03/10 01:27:01;;;;;;;;;;;;;;;;;;5118976;27;19914;-70
2022/03/10 01:29:27;;;;;;;;;;;6.60;1.00;;;;;;5136076;27;19916;-71
2022/03/10 01:31:52;;;;;;;;;;;;;;;;;;5136928;27;20333;-70
2022/03/10 01:34:18;;;;;;;;;;;6.60;1.00;;;;;;5136361;27;20336;-70
2022/03/10 01:36:43;;;;;;;;;;;6.60;1.00;;;;;;5136979;27;19915;-70
2022/03/10 01:39:09;;;;;;;;;;;6.60;1.00;;;;;;5136126;27;19915;-70
2022/03/10 01:41:35;;;;;;;;;;;6.50;1.00;;;;;;5137044;27;19908;-70
2022/03/10 01:44:04;;;;;;;;;;;6.40;1.00;;;;;;5136830;27;20371;-70
2022/03/10 01:46:31;;;;;;;;;;;6.50;1.00;;;;;;5136434;27;20372;-70
2022/03/10 01:48:57;;;;;;;;;;;6.40;1.00;;;;;;5136473;27;19920;-70
2022/03/10 01:51:23;;;;;;;;;;;;;;;;;;5135897;27;20002;-70
2022/03/10 01:53:50;;;;;;;;;;;;;;;;;;5136647;27;19965;-70
2022/03/10 01:56:19;;;;;;;;;;;6.40;1.00;;;;;;5135815;27;19907;-71
2022/03/10 01:58:45;;;;;;;;;;;6.30;1.00;;;;;;5136506;27;20346;-71
2022/03/10 02:01:11;;;;;;;;;;;6.30;1.00;;;;;;5136173;27;20313;-71
2022/03/10 02:03:37;;;;;;;;;;;6.20;1.00;;;;;;5136648;27;19918;-71
2022/03/10 02:06:03;;;;;;;;;;;;;;;;;;5136299;27;19918;-72
2022/03/10 02:11:14;;;;;;;;;;;6.30;1.00;;;;;;5135542;27;19941;-71
2022/03/10 02:13:39;;;;;;;;;;;6.20;1.00;;;;;;5136257;27;19907;-70
2022/03/10 02:18:49;;;;;;;;;;;6.00;1.00;;;;;;5135810;27;19914;-70
2022/03/10 02:21:15;;;;;;;;;;;6.10;1.00;;;;;;5135335;27;19908;-70
2022/03/10 02:23:40;;;;;;;;;;;;;;;;;;5136078;27;19908;-71
2022/03/10 02:26:06;;;;;;;;;;;;;;;;;;5117349;27;20005;-71
2022/03/10 02:28:33;;;;;;;;;;;6.00;1.00;;;;;;5128118;27;19914;-70
2022/03/10 02:30:58;;;;;;;;;;;6.00;1.00;;;;;;5115106;28;19962;-70
2022/03/10 02:33:24;;;;;;;;;;;6.10;1.00;;;;;;5114709;28;20733;-69
2022/03/10 02:35:50;;;;;;;;;;;;;;;;;;5115270;28;19954;-70
2022/03/10 02:38:19;;;;;;;;;;;6.10;1.00;;;;;;5114453;28;19907;-70
2022/03/10 02:40:45;;;;;;;;;;;6.20;1.00;;;;;;5115405;28;19907;-70
2022/03/10 02:43:10;;;;;;;;;;;6.20;1.00;;;;;;5114375;28;19908;-71
2022/03/10 02:45:36;;;;;;;;;;;6.20;1.00;;;;;;5115199;28;19915;-70
2022/03/10 02:48:02;;;;;;;;;;;;;;;;;;5114911;28;19908;-70
2022/03/10 02:50:28;;;;;;;;;;;;;;;;;;5114485;28;19904;-70
2022/03/10 02:52:54;;;;;;;;;;;6.20;1.00;;;;;;5114947;28;20249;-70
2022/03/10 02:55:19;;;;;;;;;;;6.20;1.00;;;;;;5114127;28;19908;-70
2022/03/10 02:57:45;;;;;;;;;;;6.20;1.00;;;;;;5115738;27;19908;-70
2022/03/10 03:00:14;;;;;;;;;;;;;;;;;;5134407;27;19917;-71
2022/03/10 03:02:40;;;;;;;;;;;;;;;;;;5135337;27;20395;-70
2022/03/10 03:05:06;;;;;;;;;;;6.10;1.00;;;;;;5135304;27;19907;-70
2022/03/10 03:07:32;;;;;;;;;;;6.10;1.00;;;;;;5134809;27;19912;-70
2022/03/10 03:09:58;;;;;;;;;;;6.10;1.00;;;;;;5135355;27;19912;-70
2022/03/10 03:12:24;;;;;;;;;;;6.10;1.00;;;;;;5134334;27;19959;-70
2022/03/10 03:14:49;;;;;;;;;;;6.10;1.00;;;;;;5135073;27;19908;-70
2022/03/10 03:17:15;;;;;;;;;;;6.00;1.00;;;;;;5134240;27;19908;-70
2022/03/10 03:19:40;;;;;;;;;;;6.00;1.00;;;;;;5116583;27;19907;-70
2022/03/10 03:22:06;;;;;;;;;;;5.90;1.00;;;;;;5135022;27;19907;-70
2022/03/10 03:24:31;;;;;;;;;;;5.80;1.00;;;;;;5133248;27;19938;-69
2022/03/10 03:26:57;;;;;;;;;;;5.90;1.00;;;;;;5134981;27;20279;-70
2022/03/10 03:29:22;;;;;;;;;;;6.10;1.00;;;;;;5132650;27;19919;-70
2022/03/10 03:31:48;;;;;;;;;;;6.00;1.00;;;;;;5134566;27;19911;-70
2022/03/10 03:34:13;;;;;;;;;;;5.90;1.00;;;;;;5133913;27;19908;-70
2022/03/10 03:36:39;;;;;;;;;;;;;;;;;;5134789;27;19908;-70
2022/03/10 03:39:05;;;;;;;;;;;5.80;1.00;;;;;;5134624;27;19907;-69
2022/03/10 03:41:31;;;;;;;;;;;5.70;1.00;;;;;;5133806;27;19935;-70
2022/03/10 03:43:57;;;;;;;;;;;5.70;1.00;;;;;;5134546;27;19956;-70
2022/03/10 03:46:22;;;;;;;;;;;5.60;1.00;;;;;;5133659;27;20279;-70
2022/03/10 03:48:48;;;;;;;;;;;5.60;1.00;;;;;;5115776;27;20383;-70
2022/03/10 03:51:14;;;;;;;;;;;;;;;;;;5134040;27;19979;-71
2022/03/10 03:53:40;;;;;;;;;;;5.50;1.00;;;;;;5134450;27;19908;-69
2022/03/10 03:56:05;;;;;;;;;;;5.40;1.00;;;;;;5134277;27;19907;-70
2022/03/10 03:58:31;;;;;;;;;;;5.50;1.00;;;;;;5133254;27;20356;-70
2022/03/10 04:00:56;;;;;;;;;;;5.60;1.00;;;;;;5134071;27;19998;-70
2022/03/10 04:03:22;;;;;;;;;;;5.60;1.00;;;;;;5133265;27;20004;-70
2022/03/10 04:05:47;;;;;;;;;;;5.70;1.00;;;;;;5134073;27;20335;-70
2022/03/10 04:08:14;;;;;;;;;;;;;;;;;;5133576;27;19911;-71
2022/03/10 04:10:40;;;;;;;;;;;;;;;;;;5133877;27;20077;-69
2022/03/10 04:13:06;;;;;;;;;;;5.60;1.00;;;;;;5133936;27;19946;-69
2022/03/10 04:15:32;;;;;;;;;;;5.50;1.00;;;;;;5133126;27;19938;-70
2022/03/10 04:17:58;;;;;;;;;;;5.60;1.00;;;;;;5133870;27;19907;-69
2022/03/10 04:20:24;;;;;;;;;;;5.60;1.00;;;;;;5133092;27;20010;-70
2022/03/10 04:22:50;;;;;;;;;;;;;;;;;;5133743;27;19914;-70
2022/03/10 04:25:15;;;;;;;;;;;;;;;;;;5133102;27;19908;-71
2022/03/10 04:27:41;;;;;;;;;;;5.40;1.00;;;;;;5115132;27;19961;-71
2022/03/10 04:30:07;;;;;;;;;;;5.50;1.00;;;;;;5133478;27;19964;-70
2022/03/10 04:32:44;;;;;;;;;;;5.50;1.00;;;;;;5132714;27;19918;-71
2022/03/10 04:35:10;;;;;;;;;;;5.40;1.00;;;;;;5133681;27;19916;-71
2022/03/10 04:37:36;;;;;;;;;;;;;;;;;;5132738;27;20753;-71
2022/03/10 04:40:04;;;;;;;;;;;5.30;1.00;;;;;;5133250;27;19908;-70
2022/03/10 04:42:30;;;;;;;;;;;;;;;;;;5132669;27;19907;-69
2022/03/10 04:44:55;;;;;;;;;;;5.00;1.00;;;;;;5133472;27;19914;-69
2022/03/10 04:47:21;;;;;;;;;;;4.90;1.00;;;;;;5132667;27;19908;-70
2022/03/10 04:49:46;;;;;;;;;;;4.90;1.00;;;;;;5133100;27;20284;-69
2022/03/10 08:31:28;;;;;;;;;;;;;;;;;;5119285;27;19916;-68
2022/03/10 08:33:53;;;;;;;;;;;8.30;1.00;;;;;;5108764;28;19920;-72
2022/03/10 08:36:19;;;;;;;;;;;8.20;1.00;;;;;;5108661;28;19982;-74
2022/03/10 08:38:44;;;;;;;;;;;8.40;1.00;;;;;;5107933;28;20136;-75
2022/03/10 08:41:10;;;;;;;;;;;8.40;1.00;;;;;;5108686;28;19908;-72
2022/03/10 08:43:37;;;;;;;;;;;8.40;1.00;;;;;;5105933;28;20368;-73
2022/03/10 08:46:03;;;;;;;;;;;;;;;;;;5090185;28;19927;-72
2022/03/10 08:48:31;;;;;;;;;;;8.50;1.00;;;;;;5105168;28;19912;-68
2022/03/10 08:51:06;;;;;;;;;;;8.40;1.00;;;;;;5106073;28;19965;-67
2022/03/10 08:53:32;;;;;;;;;;;;;;;;;;5107749;28;19908;-71
2022/03/10 08:55:58;;;;;;;;;;;8.60;1.00;;;;;;5090832;28;19915;-67
2022/03/10 08:58:24;;;;;;;;;;;;;;;;;;5091168;28;20003;-71
2022/03/10 09:00:50;;;;;;;;;;;8.70;1.00;;;;;;5106601;28;20023;-68
2022/03/10 09:03:15;;;;;;;;;;;8.80;1.00;;;;;;5109593;28;19965;-71
2022/03/10 09:05:42;;;;;;;;;;;8.90;1.00;;;;;;5109025;28;19912;-71
2022/03/10 09:08:08;;;;;;;;;;;;;;;;;;5103078;28;19922;-72
2022/03/10 09:10:33;;;;;;;;;;;9.30;1.00;;;;;;5108203;28;19995;-70
2022/03/10 09:12:59;;;;;;;;;;;;;;;;;;5100467;28;20443;-71
2022/03/10 09:15:27;;;;;;;;;;;;;;;;;;5107268;28;19908;-74
2022/03/10 09:17:53;;;;;;;;;;;9.10;1.00;;;;;;5090484;28;19912;-71
2022/03/10 09:20:19;;;;;;;;;;;;;;;;;;5108048;28;19962;-71
2022/03/10 09:22:46;;;;;;;;;;;9.20;1.00;;;;;;5107069;28;19935;-70
2022/03/10 09:25:12;;;;;;;;;;;9.30;1.00;;;;;;5107768;28;19909;-70
2022/03/10 09:27:38;;;;;;;;;;;;;;;;;;5107120;28;19960;-71
2022/03/10 09:30:04;;;;;;;;;;;9.70;1.00;;;;;;5107638;28;20308;-71
2022/03/10 09:32:33;;;;;;;;;;;9.70;1.00;;;;;;5106942;28;19920;-71
2022/03/10 09:34:59;;;;;;;;;;;9.70;1.00;;;;;;5106121;28;19920;-70
2022/03/10 09:37:26;;;;;;;;;;;;;;;;;;5105318;28;19915;-74
2022/03/10 09:39:52;;;;;;;;;;;;;;;;;;5105315;28;19916;-71
2022/03/10 09:42:20;;;;;;;;;;;9.80;1.00;;;;;;5094905;28;19965;-71
2022/03/10 09:44:47;;;;;;;;;;;9.90;1.00;;;;;;5093223;28;19963;-71
2022/03/10 09:47:13;;;;;;;;;;;;;;;;;;5091984;28;19916;-71
2022/03/10 09:49:40;;;;;;;;;;;10.20;1.00;;;;;;5093080;28;19919;-72
2022/03/10 09:52:08;;;;;;;;;;;10.50;1.00;;;;;;5093777;28;19912;-72
2022/03/10 09:54:33;;;;;;;;;;;;;;;;;;5093139;28;19912;-72
2022/03/10 09:56:59;;;;;;;;;;;10.60;1.00;;;;;;5093475;28;19919;-71
2022/03/10 09:59:25;;;;;;;;;;;;;;;;;;5093400;28;19965;-74
2022/03/10 10:01:51;;;;;;;;;;;10.80;1.00;;;;;;5074326;28;19921;-72
2022/03/10 10:04:19;;;;;;;;;;;10.90;1.00;;;;;;5093536;28;19911;-73
2022/03/10 10:07:00;;;;;;;;;;;11.00;1.00;;;;;;5092791;28;20034;-73
2022/03/10 10:09:26;;;;;;;;;;;;;;;;;;5071553;28;19912;-74
2022/03/10 10:12:04;;;;;;;;;;;11.10;1.00;;;;;;5073793;28;20364;-73
2022/03/10 10:14:37;;;;;;;;;;;11.40;1.00;;;;;;5088882;28;19916;-73
2022/03/10 10:17:02;;;;;;;;;;;11.30;1.00;;;;;;5089221;28;19916;-72
2022/03/10 10:19:31;;;;;;;;;;;11.40;1.00;;;;;;5091167;28;19923;-73
2022/03/10 10:22:15;;;;;;;;;;;11.70;1.00;;;;;;5090718;28;19913;-72
2022/03/10 10:24:41;;;;;;;;;;;;;;;;;;5089791;28;19912;-72
2022/03/10 10:27:15;;;;;;;;;;;11.50;1.00;;;;;;5093196;28;19915;-72
2022/03/10 10:29:50;;;;;;;;;;;11.60;1.00;;;;;;5089929;28;19959;-72
2022/03/10 10:32:16;;;;;;;;;;;;;;;;;;5085285;28;19959;-74
2022/03/10 10:34:42;;;;;;;;;;;11.80;1.00;;;;;;5089445;28;20388;-71
2022/03/10 10:37:20;;;;;;;;;;;11.90;1.00;;;;;;5091424;28;19912;-71
2022/03/10 10:39:52;;;;;;;;;;;12.10;1.00;;;;;;5089981;28;20232;-66
2022/03/10 10:42:18;;;;;;;;;;;12.30;1.00;;;;;;5092506;28;19908;-72
2022/03/10 10:44:43;;;;;;;;;;;12.30;1.00;;;;;;5089932;28;19993;-72
2022/03/10 10:47:09;;;;;;;;;;;12.30;1.00;;;;;;5093114;28;19912;-75
2022/03/10 10:49:35;;;;;;;;;;;12.50;1.00;;;;;;5074572;28;19990;-71
2022/03/10 10:52:01;;;;;;;;;;;12.40;1.00;;;;;;5089623;28;19943;-70
2022/03/10 10:54:27;;;;;;;;;;;;;;;;;;5092019;28;19978;-72
2022/03/10 10:56:53;;;;;;;;;;;;;;;;;;5092483;28;20288;-71
2022/03/10 10:59:25;;;;;;;;;;;12.80;1.00;;;;;;5092831;28;20414;-72
2022/03/10 11:01:51;;;;;;;;;;;;;;;;;;5091260;28;20432;-73
2022/03/10 11:04:17;;;;;;;;;;;;;;;;;;5063797;28;19987;-72
2022/03/10 11:06:44;;;;;;;;;;;;;;;;;;5090076;28;19912;-73
2022/03/10 11:09:10;;;;;;;;;;;;;;;;;;5090045;28;19923;-73
2022/03/10 11:11:37;;;;;;;;;;;13.20;1.00;;;;;;5089500;28;19935;-66
2022/03/10 11:14:02;;;;;;;;;;;13.30;1.00;;;;;;5089898;28;19912;-66
2022/03/10 11:16:28;;;;;;;;;;;;;;;;;;5071518;28;19920;-73
2022/03/10 11:18:54;;;;;;;;;;;13.40;1.00;;;;;;5092298;28;20054;-69
2022/03/10 11:21:20;;;;;;;;;;;13.30;1.00;;;;;;5089887;28;19947;-70
2022/03/10 11:24:12;;;;;;;;;;;13.30;1.00;;;;;;5091165;28;19943;-68
2022/03/10 11:26:44;;;;;;;;;;;13.50;1.00;;;;;;5085880;28;19908;-70
2022/03/10 11:29:09;;;;;;;;;;;;;;;;;;5089359;28;19924;-68
2022/03/10 11:31:35;;;;;;;;;;;13.60;1.00;;;;;;5091162;28;20383;-71
2022/03/10 11:34:01;;;;;;;;;;;13.70;1.00;;;;;;5092546;28;19915;-71
2022/03/10 11:36:27;;;;;;;;;;;;;;;;;;5072952;28;20415;-74
2022/03/10 11:38:53;;;;;;;;;;;;;;;;;;5073420;28;19915;-69
2022/03/10 11:41:19;;;;;;;;;;;14.00;1.00;;;;;;5091548;28;20280;-70
2022/03/10 11:43:56;;;;;;;;;;;14.30;1.00;;;;;;5072621;28;19989;-71
2022/03/10 11:46:22;;;;;;;;;;;;;;;;;;5091662;28;19916;-71
2022/03/10 11:49:06;;;;;;;;;;;14.10;1.00;;;;;;5091004;28;20291;-73
2022/03/10 11:51:32;;;;;;;;;;;;;;;;;;5084314;28;19919;-71
2022/03/10 11:53:58;;;;;;;;;;;;;;;;;;5088757;28;19919;-73
2022/03/10 11:56:24;;;;;;;;;;;;;;;;;;5068917;28;20719;-76
2022/03/10 11:58:50;;;;;;;;;;;;;;;;;;5057547;28;20054;-72
2022/03/10 12:01:16;;;;;;;;;;;;;;;;;;5087985;28;19927;-73
2022/03/10 12:03:42;;;;;;;;;;;;;;;;;;5087387;28;19909;-72
2022/03/10 12:06:12;;;;;;;;;;;14.60;1.00;;;;;;5088069;28;19909;-71
2022/03/10 12:08:40;;;;;;;;;;;;;;;;;;5085230;28;19908;-71
2022/03/10 12:11:06;;;;;;;;;;;;;;;;;;5088021;28;19937;-72
2022/03/10 12:13:44;;;;;;;;;;;15.10;1.00;;;;;;5087938;28;19999;-71
2022/03/10 12:16:10;;;;;;;;;;;;;;;;;;5085889;28;19943;-72
2022/03/10 12:18:36;;;;;;;;;;;;;;;;;;5087250;28;20396;-73
2022/03/10 12:21:01;;;;;;;;;;;;;;;;;;5088087;28;19912;-72
2022/03/10 12:23:27;;;;;;;;;;;;;;;;;;5085097;28;19919;-76
2022/03/10 12:25:54;;;;;;;;;;;;;;;;;;5085672;28;19916;-72
2022/03/10 12:28:20;;;;;;;;;;;;;;;;;;5086161;28;20355;-73
2022/03/10 12:30:46;;;;;;;;;;;15.40;1.00;;;;;;5068042;28;19916;-72
2022/03/10 12:33:12;;;;;;;;;;;15.50;1.00;;;;;;5087507;28;19999;-73
2022/03/10 12:35:38;;;;;;;;;;;;;;;;;;5088253;28;19912;-72
2022/03/10 12:38:04;;;;;;;;;;;;;;;;;;5085406;28;19999;-73
2022/03/10 12:40:30;;;;;;;;;;;;;;;;;;5087697;28;19920;-73
2022/03/10 12:42:56;;;;;;;;;;;;;;;;;;5089007;28;19919;-72
2022/03/10 12:45:21;;;;;;;;;;;15.60;1.00;;;;;;5086504;28;19919;-72
2022/03/10 12:47:53;;;;;;;;;;;15.50;1.00;;;;;;5081612;28;19908;-72
2022/03/10 12:50:19;;;;;;;;;;;;;;;;;;5084941;28;19916;-73
2022/03/10 12:52:45;;;;;;;;;;;;;;;;;;5088196;28;20423;-72
2022/03/10 12:55:11;;;;;;;;;;;;;;;;;;5088964;28;19942;-72
2022/03/10 12:57:39;;;;;;;;;;;16.30;1.00;;;;;;5086079;28;20011;-72
2022/03/10 13:00:18;;;;;;;;;;;16.10;1.00;;;;;;5088656;28;19944;-72
2022/03/10 13:02:44;;;;;;;;;;;;;;;;;;5082704;28;19964;-73
2022/03/10 13:05:10;;;;;;;;;;;;;;;;;;5088557;28;20013;-71
2022/03/10 13:07:36;;;;;;;;;;;16.20;1.00;;;;;;5070737;28;19913;-71
2022/03/10 13:10:07;;;;;;;;;;;16.40;1.00;;;;;;5092238;28;19908;-72
2022/03/10 13:12:39;;;;;;;;;;;16.40;1.00;;;;;;5091211;28;19908;-72
2022/03/10 13:15:06;;;;;;;;;;;16.30;1.00;;;;;;5092380;28;20261;-73
2022/03/10 13:17:35;;;;;;;;;;;16.50;1.00;;;;;;5095021;28;19916;-73
2022/03/10 13:20:01;;;;;;;;;;;16.50;1.00;;;;;;5095695;28;19912;-73
2022/03/10 13:22:27;;;;;;;;;;;;;;;;;;5095741;28;19908;-77
2022/03/10 13:24:52;;;;;;;;;;;16.50;1.00;;;;;;5095489;28;19922;-72
2022/03/10 13:27:18;;;;;;;;;;;;;;;;;;5095641;28;19912;-71
2022/03/10 13:29:45;;;;;;;;;;;16.30;1.00;;;;;;5094603;28;19920;-72
2022/03/10 13:32:11;;;;;;;;;;;16.50;1.00;;;;;;5095548;28;19971;-72
2022/03/10 13:34:36;;;;;;;;;;;16.50;1.00;;;;;;5094568;28;19911;-72
2022/03/10 13:37:02;;;;;;;;;;;16.60;1.00;;;;;;5095440;28;19978;-72
2022/03/10 13:39:30;;;;;;;;;;;;;;;;;;5095107;28;19912;-74
2022/03/10 13:41:55;;;;;;;;;;;16.70;1.00;;;;;;5095126;28;19908;-72
2022/03/10 13:44:21;;;;;;;;;;;16.90;1.00;;;;;;5095213;28;20326;-71
2022/03/10 13:46:47;;;;;;;;;;;16.70;1.00;;;;;;5094490;28;20654;-72
2022/03/10 13:49:19;;;;;;;;;;;16.70;1.00;;;;;;5095309;28;20364;-72
2022/03/10 13:51:46;;;;;;;;;;;16.90;1.00;;;;;;5094471;28;19936;-72
2022/03/10 13:54:11;;;;;;;;;;;16.70;1.00;;;;;;5095147;28;20003;-72
2022/03/10 13:56:41;;;;;;;;;;;16.70;1.00;;;;;;5094383;28;19962;-72
2022/03/10 13:59:09;;;;;;;;;;;16.80;1.00;;;;;;5094864;28;19916;-72
2022/03/10 14:01:35;;;;;;;;;;;;;;;;;;5094407;28;19947;-72
2022/03/10 14:04:07;;;;;;;;;;;16.70;1.00;;;;;;5095009;28;19934;-72
2022/03/10 14:06:32;;;;;;;;;;;;;;;;;;5094275;28;19914;-75
2022/03/10 14:08:58;;;;;;;;;;;;;;;;;;5090358;28;20510;-73
2022/03/10 14:11:27;;;;;;;;;;;17.00;1.00;;;;;;5092947;28;19908;-72
2022/03/10 14:14:00;;;;;;;;;;;16.90;1.00;;;;;;5093964;28;19908;-72
2022/03/10 14:16:29;;;;;;;;;;;17.00;1.00;;;;;;5076670;28;19969;-71
2022/03/10 14:18:56;;;;;;;;;;;17.20;1.00;;;;;;5093973;28;19912;-72
2022/03/10 14:21:21;;;;;;;;;;;17.20;1.00;;;;;;5094672;28;19908;-72
2022/03/10 14:24:00;;;;;;;;;;;17.10;1.00;;;;;;5093809;28;20372;-71
2022/03/10 14:26:34;;;;;;;;;;;17.00;1.00;;;;;;5094321;28;19908;-70
2022/03/10 14:29:00;;;;;;;;;;;17.10;1.00;;;;;;5094201;28;20376;-71
2022/03/10 14:31:26;;;;;;;;;;;17.00;1.00;;;;;;5094515;28;19920;-71
2022/03/10 14:33:52;;;;;;;;;;;16.80;1.00;;;;;;5093868;28;19904;-71
2022/03/10 14:36:22;;;;;;;;;;;17.10;1.00;;;;;;5094531;28;19974;-71
2022/03/10 14:38:49;;;;;;;;;;;17.00;1.00;;;;;;5075285;28;20356;-71
2022/03/10 14:41:18;;;;;;;;;;;16.80;1.00;;;;;;5094433;28;19912;-70
2022/03/10 14:43:44;;;;;;;;;;;16.80;1.00;;;;;;5093414;28;19908;-71
2022/03/10 14:46:09;;;;;;;;;;;;;;;;;;5094054;28;20356;-71
2022/03/10 14:48:35;;;;;;;;;;;;;;;;;;5093309;28;19944;-74
2022/03/10 14:51:01;;;;;;;;;;;17.00;1.00;;;;;;5094031;28;20306;-71
2022/03/10 14:53:27;;;;;;;;;;;17.00;1.00;;;;;;5093957;28;19908;-70
2022/03/10 14:55:52;;;;;;;;;;;17.00;1.00;;;;;;5093138;28;19904;-70
2022/03/10 14:58:18;;;;;;;;;;;17.00;1.00;;;;;;5094059;28;19912;-71
2022/03/10 15:00:43;;;;;;;;;;;16.90;1.00;;;;;;5093125;28;19916;-71
2022/03/10 15:03:09;;;;;;;;;;;;;;;;;;5094045;28;19919;-70
2022/03/10 15:05:37;;;;;;;;;;;;;;;;;;5093220;28;19991;-74
2022/03/10 15:08:03;;;;;;;;;;;;;;;;;;5075630;28;20352;-70
2022/03/10 15:10:29;;;;;;;;;;;17.00;1.00;;;;;;5093683;28;20439;-71
2022/03/10 15:12:55;;;;;;;;;;;17.00;1.00;;;;;;5092889;28;19987;-70
2022/03/10 15:15:21;;;;;;;;;;;;;;;;;;5093739;28;19908;-70
2022/03/10 15:17:46;;;;;;;;;;;17.10;1.00;;;;;;5092702;28;19957;-72
2022/03/10 15:20:12;;;;;;;;;;;16.90;1.00;;;;;;5093431;28;19919;-71
2022/03/10 15:22:59;;;;;;;;;;;16.80;1.00;;;;;;5092649;28;19908;-71
2022/03/10 15:25:26;;;;;;;;;;;17.00;1.00;;;;;;5092817;28;19909;-73
2022/03/10 15:27:53;;;;;;;;;;;17.00;1.00;;;;;;5092504;28;20253;-73
2022/03/10 15:30:18;;;;;;;;;;;17.00;1.00;;;;;;5093055;28;20019;-73
2022/03/10 15:32:44;;;;;;;;;;;16.80;1.00;;;;;;5092533;28;19973;-74
2022/03/10 15:35:11;;;;;;;;;;;16.80;1.00;;;;;;5093253;28;19919;-73
2022/03/10 15:37:37;;;;;;;;;;;;;;;;;;5092452;28;19915;-75
2022/03/10 15:40:03;;;;;;;;;;;16.80;1.00;;;;;;5092616;28;19911;-73
2022/03/10 15:42:28;;;;;;;;;;;16.70;1.00;;;;;;5093131;28;19908;-73
2022/03/10 15:44:54;;;;;;;;;;;16.80;1.00;;;;;;5073970;28;19970;-73
2022/03/10 15:47:20;;;;;;;;;;;;;;;;;;5093112;28;19961;-73
2022/03/10 15:49:45;;;;;;;;;;;16.60;1.00;;;;;;5092398;28;20299;-73
2022/03/10 15:52:11;;;;;;;;;;;16.70;1.00;;;;;;5092892;28;20326;-73
2022/03/10 15:54:37;;;;;;;;;;;;;;;;;;5092528;28;19915;-74
2022/03/10 15:57:03;;;;;;;;;;;16.70;1.00;;;;;;5092497;28;19933;-73
2022/03/10 15:59:28;;;;;;;;;;;16.50;1.00;;;;;;5092914;28;19912;-72
2022/03/10 16:01:54;;;;;;;;;;;16.70;1.00;;;;;;5091946;28;19916;-73
2022/03/10 16:04:20;;;;;;;;;;;;;;;;;;5092885;28;19954;-73
2022/03/10 16:06:45;;;;;;;;;;;16.20;1.00;;;;;;5092077;28;19930;-73
2022/03/10 16:09:11;;;;;;;;;;;16.30;1.00;;;;;;5074479;28;20426;-72
2022/03/10 16:11:37;;;;;;;;;;;;;;;;;;5092426;28;19995;-74
2022/03/10 16:14:02;;;;;;;;;;;16.20;1.00;;;;;;5092079;28;19963;-73
2022/03/10 16:16:28;;;;;;;;;;;16.30;1.00;;;;;;5092595;28;19933;-72
2022/03/10 16:18:54;;;;;;;;;;;16.30;1.00;;;;;;5091701;28;19912;-72
2022/03/10 16:21:19;;;;;;;;;;;;;;;;;;5092689;28;19912;-72
2022/03/10 16:23:45;;;;;;;;;;;16.00;1.00;;;;;;5092035;28;19915;-72
2022/03/10 16:26:11;;;;;;;;;;;;;;;;;;5092811;28;20348;-72
2022/03/10 16:28:37;;;;;;;;;;;;;;;;;;5092181;28;19916;-74
2022/03/10 16:31:03;;;;;;;;;;;16.00;1.00;;;;;;5091894;28;19947;-72
2022/03/10 16:33:28;;;;;;;;;;;15.90;1.00;;;;;;5092447;28;19909;-72
2022/03/10 16:35:54;;;;;;;;;;;15.70;1.00;;;;;;5091655;28;19908;-72
2022/03/10 16:38:20;;;;;;;;;;;;;;;;;;5092588;28;19912;-72
2022/03/10 16:40:45;;;;;;;;;;;15.80;1.00;;;;;;5091719;28;20269;-72
2022/03/10 16:43:11;;;;;;;;;;;15.50;1.00;;;;;;5093090;28;19914;-72
2022/03/10 16:45:37;;;;;;;;;;;15.60;1.00;;;;;;5092584;28;19931;-71
2022/03/10 16:48:02;;;;;;;;;;;15.30;1.00;;;;;;5091574;28;19915;-71
2022/03/10 16:50:29;;;;;;;;;;;15.10;1.00;;;;;;5093272;28;20386;-72
2022/03/10 16:52:55;;;;;;;;;;;14.80;1.00;;;;;;5095840;28;19915;-71
2022/03/10 16:55:21;;;;;;;;;;;14.90;1.00;;;;;;5096298;28;19986;-71
2022/03/10 16:57:46;;;;;;;;;;;15.00;1.00;;;;;;5095304;28;19985;-71
2022/03/10 17:00:12;;;;;;;;;;;14.90;1.00;;;;;;5096753;28;20034;-71
2022/03/10 17:02:38;;;;;;;;;;;14.40;1.00;;;;;;5079530;28;20351;-71
2022/03/10 17:05:04;;;;;;;;;;;14.20;1.00;;;;;;5074563;28;20002;-71
2022/03/10 17:07:30;;;;;;;;;;;;;;;;;;5075946;28;19912;-71
2022/03/10 17:09:55;;;;;;;;;;;14.10;1.00;;;;;;5057078;28;19908;-71
2022/03/10 17:12:21;;;;;;;;;;;14.10;1.00;;;;;;5057763;28;19947;-70
2022/03/10 17:14:46;;;;;;;;;;;14.00;1.00;;;;;;5074943;28;20397;-72
2022/03/10 17:17:12;;;;;;;;;;;13.90;1.00;;;;;;5075779;28;19909;-71
2022/03/10 17:19:37;;;;;;;;;;;13.50;1.00;;;;;;5075536;28;19912;-72
2022/03/10 17:22:03;;;;;;;;;;;13.50;1.00;;;;;;5074852;28;19916;-71
2022/03/10 17:24:30;;;;;;;;;;;13.30;1.00;;;;;;5075480;28;20391;-71
2022/03/10 17:26:56;;;;;;;;;;;13.20;1.00;;;;;;5074653;28;19915;-71
2022/03/10 17:29:22;;;;;;;;;;;13.20;1.00;;;;;;5086366;28;19927;-71
2022/03/10 17:31:48;;;;;;;;;;;;;;;;;;5094722;28;19916;-72
2022/03/10 17:34:14;;;;;;;;;;;13.00;1.00;;;;;;5095453;28;19912;-71
2022/03/10 17:36:41;;;;;;;;;;;;;;;;;;5095441;28;20438;-73
2022/03/10 17:39:06;;;;;;;;;;;13.00;1.00;;;;;;5076561;28;19982;-71
2022/03/10 17:41:33;;;;;;;;;;;13.00;1.00;;;;;;5091528;28;20292;-71
2022/03/10 17:44:00;;;;;;;;;;;12.90;1.00;;;;;;5091617;28;19916;-70
2022/03/10 17:46:25;;;;;;;;;;;12.80;1.00;;;;;;5095443;28;19908;-70
2022/03/10 17:48:51;;;;;;;;;;;12.70;1.00;;;;;;5094540;28;20261;-70
2022/03/10 17:51:16;;;;;;;;;;;12.70;1.00;;;;;;5095330;28;19940;-71
2022/03/10 17:53:42;;;;;;;;;;;;;;;;;;5095220;28;20276;-72
2022/03/10 17:56:08;;;;;;;;;;;12.60;1.00;;;;;;5094441;28;19908;-71
2022/03/10 17:58:34;;;;;;;;;;;12.50;1.00;;;;;;5091757;28;19920;-72
2022/03/10 18:00:59;;;;;;;;;;;;;;;;;;5075481;28;20007;-71
2022/03/10 18:03:25;;;;;;;;;;;12.30;1.00;;;;;;5090416;28;19912;-68
2022/03/10 18:05:52;;;;;;;;;;;12.30;1.00;;;;;;5094179;28;20008;-68
2022/03/10 18:08:18;;;;;;;;;;;12.30;1.00;;;;;;5090794;28;19912;-69
2022/03/10 18:10:46;;;;;;;;;;;;;;;;;;5092673;28;19912;-69
2022/03/10 18:13:12;;;;;;;;;;;12.40;1.00;;;;;;5091008;28;19908;-69
2022/03/10 18:15:38;;;;;;;;;;;12.30;1.00;;;;;;5094747;28;20417;-69
2022/03/10 18:18:03;;;;;;;;;;;12.20;1.00;;;;;;5094118;28;19955;-69
2022/03/10 18:20:29;;;;;;;;;;;;;;;;;;5093891;28;19912;-68
2022/03/10 18:22:55;;;;;;;;;;;12.10;1.00;;;;;;5092891;28;19912;-68
2022/03/10 18:25:21;;;;;;;;;;;12.00;1.00;;;;;;5093335;28;19909;-66
2022/03/10 18:27:47;;;;;;;;;;;;;;;;;;5074059;28;19935;-74
2022/03/10 18:30:13;;;;;;;;;;;;;;;;;;5086424;28;20392;-69
2022/03/10 18:32:39;;;;;;;;;;;11.80;1.00;;;;;;5094699;28;19913;-69
2022/03/10 18:35:06;;;;;;;;;;;11.80;1.00;;;;;;5093826;28;19908;-70
2022/03/10 18:37:31;;;;;;;;;;;11.60;1.00;;;;;;5094301;28;20424;-70
2022/03/10 18:39:57;;;;;;;;;;;11.60;1.00;;;;;;5093415;28;20010;-69
2022/03/10 18:42:25;;;;;;;;;;;11.60;1.00;;;;;;5094453;28;19912;-69
2022/03/10 18:44:50;;;;;;;;;;;11.70;1.00;;;;;;5075266;28;19915;-69
2022/03/10 18:47:16;;;;;;;;;;;11.60;1.00;;;;;;5094135;28;20368;-70
2022/03/10 18:49:45;;;;;;;;;;;;;;;;;;5076073;28;20375;-69
2022/03/10 18:52:12;;;;;;;;;;;;;;;;;;5085155;28;19912;-70